createdAt,value
2019-05-28T00:02:08.822Z,59.93
2019-05-28T00:04:42.181Z,54.65
2019-05-28T00:07:15.553Z,56.32
2019-05-28T00:09:48.897Z,57.81
2019-05-28T00:12:22.319Z,59.02
2019-05-28T00:14:55.608Z,60.31
2019-05-28T00:17:28.895Z,61.32
2019-05-28T00:20:03.298Z,62.19
2019-05-28T00:22:36.784Z,62.88
2019-05-28T00:25:10.434Z,60.13
2019-05-28T00:27:43.780Z,53.96
2019-05-28T00:30:20.213Z,55.26
2019-05-28T00:32:52.845Z,57.41
2019-05-28T00:35:26.335Z,58.92
2019-05-28T00:37:59.668Z,60.33
2019-05-28T00:40:33.032Z,61.35
2019-05-28T00:43:06.405Z,62.24
2019-05-28T00:45:39.772Z,60.34
2019-05-28T00:48:13.260Z,52.35
2019-05-28T00:50:47.632Z,50.59
2019-05-28T00:53:20.997Z,53.27
2019-05-28T00:55:56.248Z,55.48
2019-05-28T00:58:30.892Z,56.94
2019-05-28T01:01:04.379Z,57.95
2019-05-28T01:03:37.720Z,59.31
2019-05-28T01:06:11.098Z,60.93
2019-05-28T01:08:44.368Z,61.47
2019-05-28T01:11:17.748Z,62.76
2019-05-28T01:13:52.732Z,60.05
2019-05-28T01:16:27.434Z,54.68
2019-05-28T01:19:00.741Z,56.33
2019-05-28T01:21:34.179Z,58.55
2019-05-28T01:24:07.508Z,60.12
2019-05-28T01:26:41.645Z,61.57
2019-05-28T01:29:15.803Z,62.24
2019-05-28T01:31:49.124Z,60.30
2019-05-28T01:34:22.351Z,51.28
2019-05-28T01:36:55.594Z,50.11
2019-05-28T01:39:28.928Z,53.06
2019-05-28T01:42:02.174Z,55.38
2019-05-28T01:44:35.515Z,57.72
2019-05-28T01:47:08.777Z,59.25
2019-05-28T01:49:42.482Z,60.64
2019-05-28T01:52:15.798Z,61.87
2019-05-28T01:54:50.145Z,63.04
2019-05-28T01:57:23.405Z,60.15
2019-05-28T01:59:56.732Z,51.81
2019-05-28T02:02:30.066Z,50.87
2019-05-28T02:05:07.507Z,53.69
2019-05-28T02:07:40.880Z,56.12
2019-05-28T02:10:14.420Z,58.31
2019-05-28T02:12:47.643Z,59.86
2019-05-28T02:15:21.280Z,61.26
2019-05-28T02:17:54.622Z,62.58
2019-05-28T02:20:27.927Z,60.08
2019-05-28T02:23:01.107Z,54.87
2019-05-28T02:25:34.424Z,56.78
2019-05-28T02:28:07.895Z,59.01
2019-05-28T02:30:41.270Z,60.91
2019-05-28T02:33:14.500Z,62.31
2019-05-28T02:35:47.742Z,59.98
2019-05-28T02:38:20.988Z,51.55
2019-05-28T02:40:54.321Z,51.08
2019-05-28T02:43:28.691Z,54.22
2019-05-28T02:46:01.942Z,56.65
2019-05-28T02:48:36.191Z,58.63
2019-05-28T02:51:09.452Z,60.23
2019-05-28T02:53:42.823Z,61.52
2019-05-28T02:56:19.402Z,62.73
2019-05-28T02:58:53.445Z,59.92
2019-05-28T03:01:43.004Z,51.74
2019-05-28T03:04:04.931Z,50.32
2019-05-28T03:06:40.828Z,53.62
2019-05-28T03:09:14.056Z,56.33
2019-05-28T03:11:47.377Z,58.25
2019-05-28T03:14:20.648Z,59.98
2019-05-28T03:16:58.484Z,61.48
2019-05-28T03:19:32.900Z,62.85
2019-05-28T03:22:07.696Z,60.31
2019-05-28T03:24:41.787Z,52.70
2019-05-28T03:27:15.056Z,51.87
2019-05-28T03:29:48.330Z,54.69
2019-05-28T03:32:21.664Z,56.92
2019-05-28T03:34:54.860Z,58.90
2019-05-28T03:37:28.821Z,60.51
2019-05-28T03:40:04.497Z,61.87
2019-05-28T03:42:38.666Z,63.07
2019-05-28T03:45:12.071Z,60.29
2019-05-28T03:47:45.389Z,52.71
2019-05-28T03:50:18.808Z,51.88
2019-05-28T03:52:52.045Z,54.81
2019-05-28T03:55:25.342Z,57.38
2019-05-28T03:57:58.830Z,59.45
2019-05-28T04:00:32.046Z,61.33
2019-05-28T04:03:05.349Z,62.72
2019-05-28T04:05:38.583Z,59.90
2019-05-28T04:08:11.852Z,55.33
2019-05-28T04:10:45.186Z,57.36
2019-05-28T04:13:18.459Z,59.62
2019-05-28T04:15:51.703Z,61.57
2019-05-28T04:18:25.004Z,63.22
2019-05-28T04:20:58.152Z,60.45
2019-05-28T04:23:31.295Z,52.53
2019-05-28T04:26:04.487Z,51.84
2019-05-28T04:28:37.702Z,54.99
2019-05-28T04:31:10.842Z,57.76
2019-05-28T04:33:43.923Z,59.77
2019-05-28T04:36:17.271Z,61.25
2019-05-28T04:38:50.496Z,62.53
2019-05-28T04:41:23.703Z,60.07
2019-05-28T04:43:57.011Z,55.28
2019-05-28T04:46:30.262Z,57.64
2019-05-28T04:49:03.481Z,60.06
2019-05-28T04:51:36.727Z,61.86
2019-05-28T04:54:09.885Z,63.39
2019-05-28T04:56:44.104Z,60.42
2019-05-28T04:59:17.343Z,52.27
2019-05-28T05:01:50.571Z,51.67
2019-05-28T05:04:23.715Z,54.73
2019-05-28T05:06:56.970Z,57.27
2019-05-28T05:09:30.253Z,59.19
2019-05-28T05:12:03.432Z,60.90
2019-05-28T05:14:36.783Z,62.13
2019-05-28T05:17:10.011Z,63.52
2019-05-28T05:19:43.144Z,60.48
2019-05-28T05:22:16.250Z,51.35
2019-05-28T05:24:49.451Z,50.46
2019-05-28T05:27:22.681Z,53.65
2019-05-28T05:29:55.921Z,56.35
2019-05-28T05:32:31.546Z,58.55
2019-05-28T05:35:04.890Z,60.46
2019-05-28T05:37:38.109Z,62.02
2019-05-28T05:40:13.471Z,63.94
2019-05-28T05:42:47.391Z,59.82
2019-05-28T05:45:21.050Z,55.26
2019-05-28T05:47:54.364Z,57.65
2019-05-28T05:50:27.657Z,60.16
2019-05-28T05:53:00.892Z,61.92
2019-05-28T05:55:34.107Z,63.63
2019-05-28T05:58:07.288Z,60.53
2019-05-28T06:00:40.837Z,52.23
2019-05-28T06:03:14.038Z,51.69
2019-05-28T06:05:47.276Z,54.74
2019-05-28T06:08:20.534Z,57.76
2019-05-28T06:10:53.837Z,59.41
2019-05-28T06:13:27.037Z,60.73
2019-05-28T06:16:00.153Z,62.75
2019-05-28T06:18:33.452Z,59.58
2019-05-28T06:21:13.621Z,54.93
2019-05-28T06:23:41.661Z,57.25
2019-05-28T06:26:14.916Z,59.09
2019-05-28T06:28:48.131Z,60.68
2019-05-28T06:31:21.379Z,62.55
2019-05-28T06:33:57.288Z,59.86
2019-05-28T06:36:29.403Z,55.02
2019-05-28T06:39:02.640Z,57.25
2019-05-28T06:41:35.848Z,59.54
2019-05-28T06:44:09.082Z,61.50
2019-05-28T06:46:42.227Z,63.23
2019-05-28T06:49:15.517Z,59.61
2019-05-28T06:51:48.763Z,55.56
2019-05-28T06:54:21.988Z,57.98
2019-05-28T06:56:55.148Z,60.41
2019-05-28T06:59:28.427Z,62.10
2019-05-28T07:02:01.998Z,63.20
2019-05-28T07:04:35.231Z,60.82
2019-05-28T07:07:08.440Z,51.55
2019-05-28T07:09:41.733Z,50.05
2019-05-28T07:12:17.851Z,53.78
2019-05-28T07:14:49.845Z,56.35
2019-05-28T07:17:24.396Z,58.73
2019-05-28T07:19:57.814Z,60.90
2019-05-28T07:22:31.041Z,62.14
2019-05-28T07:25:04.323Z,63.18
2019-05-28T07:27:37.526Z,59.80
2019-05-28T07:30:11.228Z,55.32
2019-05-28T07:32:44.473Z,56.52
2019-05-28T07:35:17.711Z,58.93
2019-05-28T07:37:50.918Z,60.79
2019-05-28T07:40:31.486Z,61.83
2019-05-28T07:42:58.977Z,63.09
2019-05-28T07:45:33.546Z,59.96
2019-05-28T07:48:06.768Z,55.14
2019-05-28T07:50:39.993Z,57.20
2019-05-28T07:53:13.231Z,59.22
2019-05-28T07:55:46.492Z,60.92
2019-05-28T07:58:19.739Z,62.22
2019-05-28T08:00:52.922Z,63.66
2019-05-28T08:03:26.161Z,60.42
2019-05-28T08:05:59.385Z,51.69
2019-05-28T08:08:32.817Z,50.46
2019-05-28T08:11:06.022Z,53.68
2019-05-28T08:13:40.979Z,56.03
2019-05-28T08:16:18.778Z,58.03
2019-05-28T08:18:49.980Z,59.71
2019-05-28T08:21:23.227Z,61.60
2019-05-28T08:23:56.430Z,62.85
2019-05-28T08:26:29.624Z,59.80
2019-05-28T08:29:02.838Z,55.06
2019-05-28T08:31:35.976Z,56.68
2019-05-28T08:34:09.379Z,59.44
2019-05-28T08:36:42.644Z,61.05
2019-05-28T08:39:15.992Z,62.41
2019-05-28T08:41:49.266Z,60.60
2019-05-28T08:44:22.473Z,52.32
2019-05-28T08:46:55.719Z,51.07
2019-05-28T08:49:29.052Z,54.08
2019-05-28T08:52:02.302Z,56.48
2019-05-28T08:54:36.018Z,58.88
2019-05-28T08:57:09.313Z,60.63
2019-05-28T08:59:42.631Z,61.94
2019-05-28T09:02:27.281Z,63.55
2019-05-28T09:04:50.780Z,60.88
2019-05-28T09:07:24.075Z,52.11
2019-05-28T09:09:57.293Z,51.27
2019-05-28T09:12:30.502Z,53.79
2019-05-28T09:15:03.652Z,56.78
2019-05-28T09:17:36.948Z,58.36
2019-05-28T09:20:11.081Z,60.12
2019-05-28T09:22:44.356Z,61.43
2019-05-28T09:25:18.579Z,62.45
2019-05-28T09:27:51.845Z,59.79
2019-05-28T09:30:25.111Z,55.30
2019-05-28T09:32:58.543Z,57.63
2019-05-28T09:35:43.984Z,59.88
2019-05-28T09:38:06.707Z,61.87
2019-05-28T09:40:49.728Z,63.75
2019-05-28T09:43:14.791Z,60.42
2019-05-28T09:45:48.021Z,51.51
2019-05-28T09:48:21.454Z,50.65
2019-05-28T09:50:54.684Z,53.99
2019-05-28T09:53:27.957Z,56.19
2019-05-28T09:56:02.783Z,57.97
2019-05-28T09:58:36.213Z,59.78
2019-05-28T10:01:09.535Z,60.52
2019-05-28T10:03:42.761Z,62.47
2019-05-28T10:06:17.856Z,59.56
2019-05-28T10:08:51.794Z,55.32
2019-05-28T10:11:25.607Z,57.26
2019-05-28T10:13:58.935Z,59.64
2019-05-28T10:16:32.143Z,61.32
2019-05-28T10:19:05.317Z,62.34
2019-05-28T10:21:38.520Z,59.88
2019-05-28T10:24:11.761Z,51.60
2019-05-28T10:26:44.997Z,53.08
2019-05-28T10:29:18.221Z,55.78
2019-05-28T10:31:51.298Z,57.75
2019-05-28T10:34:24.555Z,59.47
2019-05-28T10:36:57.723Z,60.94
2019-05-28T10:39:31.081Z,62.38
2019-05-28T10:42:04.384Z,59.74
2019-05-28T10:44:37.613Z,54.66
2019-05-28T10:47:10.893Z,56.59
2019-05-28T10:49:44.031Z,58.99
2019-05-28T10:52:17.235Z,60.16
2019-05-28T10:54:50.478Z,62.45
2019-05-28T10:57:23.628Z,63.55
2019-05-28T10:59:56.961Z,60.72
2019-05-28T11:02:30.098Z,52.46
2019-05-28T11:05:03.435Z,51.69
2019-05-28T11:07:36.630Z,54.27
2019-05-28T11:10:23.191Z,56.67
2019-05-28T11:12:46.171Z,57.86
2019-05-28T11:15:23.804Z,59.01
2019-05-28T11:17:55.622Z,61.49
2019-05-28T11:20:30.779Z,62.10
2019-05-28T11:23:04.018Z,63.03
2019-05-28T11:25:37.176Z,60.38
2019-05-28T11:28:10.332Z,50.39
2019-05-28T11:30:43.663Z,50.29
2019-05-28T11:33:17.524Z,53.32
2019-05-28T11:35:51.060Z,56.57
2019-05-28T11:38:24.322Z,58.80
2019-05-28T11:40:57.648Z,59.28
2019-05-28T11:43:30.865Z,61.17
2019-05-28T11:46:04.117Z,61.51
2019-05-28T11:48:37.631Z,62.37
2019-05-28T11:51:10.885Z,58.34
2019-05-28T11:53:44.332Z,54.47
2019-05-28T11:56:17.669Z,56.57
2019-05-28T11:59:04.559Z,58.12
2019-05-28T12:01:42.202Z,59.24
2019-05-28T12:04:15.453Z,60.24
2019-05-28T12:06:48.678Z,60.74
2019-05-28T12:09:21.929Z,61.04
2019-05-28T12:11:55.359Z,61.65
2019-05-28T12:14:28.596Z,63.01
2019-05-28T12:17:01.851Z,60.07
2019-05-28T12:19:35.133Z,54.71
2019-05-28T12:22:08.318Z,56.29
2019-05-28T12:24:41.521Z,58.48
2019-05-28T12:27:14.776Z,59.22
2019-05-28T12:29:51.890Z,60.94
2019-05-28T12:32:22.955Z,62.16
2019-05-28T12:34:56.261Z,63.59
2019-05-28T12:37:47.032Z,59.20
2019-05-28T12:40:06.052Z,55.28
2019-05-28T12:42:40.774Z,56.89
2019-05-28T12:45:15.221Z,58.67
2019-05-28T12:48:07.188Z,59.39
2019-05-28T12:50:23.707Z,60.59
2019-05-28T12:52:56.943Z,61.86
2019-05-28T12:55:30.240Z,62.81
2019-05-28T12:58:03.494Z,59.79
2019-05-28T13:00:38.211Z,53.46
2019-05-28T13:03:11.543Z,56.28
2019-05-28T13:05:44.836Z,58.58
2019-05-28T13:08:19.278Z,60.28
2019-05-28T13:10:52.509Z,61.21
2019-05-28T13:13:25.856Z,61.95
2019-05-28T13:15:59.138Z,63.08
2019-05-28T13:18:32.378Z,59.49
2019-05-28T13:21:05.666Z,54.61
2019-05-28T13:23:38.919Z,55.62
2019-05-28T13:26:14.757Z,57.29
2019-05-28T13:28:47.306Z,58.29
2019-05-28T13:31:21.936Z,59.38
2019-05-28T13:33:55.742Z,60.52
2019-05-28T13:36:29.089Z,62.04
2019-05-28T13:39:03.372Z,62.23
2019-05-28T13:41:36.702Z,62.94
2019-05-28T13:44:10.010Z,59.58
2019-05-28T13:46:43.307Z,54.72
2019-05-28T13:49:16.564Z,56.80
2019-05-28T13:51:52.893Z,58.67
2019-05-28T13:54:29.677Z,59.90
2019-05-28T13:57:02.888Z,61.14
2019-05-28T13:59:36.132Z,62.43
2019-05-28T14:02:09.429Z,59.83
2019-05-28T14:04:42.982Z,54.67
2019-05-28T14:07:16.352Z,56.10
2019-05-28T14:09:49.548Z,57.83
2019-05-28T14:12:23.257Z,59.32
2019-05-28T14:14:56.499Z,60.58
2019-05-28T14:17:29.838Z,61.22
2019-05-28T14:20:03.300Z,62.10
2019-05-28T14:22:37.214Z,63.03
2019-05-28T14:25:10.965Z,59.12
2019-05-28T14:27:44.155Z,54.61
2019-05-28T14:30:18.510Z,56.39
2019-05-28T14:32:52.033Z,58.09
2019-05-28T14:35:25.339Z,59.52
2019-05-28T14:37:58.625Z,60.67
2019-05-28T14:40:32.610Z,61.75
2019-05-28T14:43:06.403Z,61.54
2019-05-28T14:45:39.647Z,62.19
2019-05-28T14:48:12.849Z,63.34
2019-05-28T14:50:46.512Z,59.64
2019-05-28T14:53:19.812Z,53.34
2019-05-28T14:55:53.061Z,54.91
2019-05-28T14:58:26.341Z,57.27
2019-05-28T15:00:59.569Z,58.65
2019-05-28T15:03:32.823Z,59.81
2019-05-28T15:06:07.091Z,61.03
2019-05-28T15:08:40.326Z,61.80
2019-05-28T15:11:13.610Z,62.36
2019-05-28T15:13:46.845Z,63.43
2019-05-28T15:16:20.494Z,58.77
2019-05-28T15:18:53.712Z,54.14
2019-05-28T15:21:28.031Z,56.34
2019-05-28T15:24:01.275Z,58.38
2019-05-28T15:26:34.597Z,59.74
2019-05-28T15:29:07.771Z,61.18
2019-05-28T15:31:41.037Z,62.03
2019-05-28T15:34:14.256Z,62.64
2019-05-28T15:36:47.491Z,60.00
2019-05-28T15:39:38.208Z,55.59
2019-05-28T15:41:55.759Z,56.51
2019-05-28T15:44:29.305Z,58.66
2019-05-28T15:47:02.629Z,60.09
2019-05-28T15:49:35.841Z,61.13
2019-05-28T15:52:09.064Z,62.10
2019-05-28T15:54:42.315Z,63.50
2019-05-28T15:57:15.682Z,59.49
2019-05-28T15:59:50.462Z,54.38
2019-05-28T16:02:23.822Z,55.72
2019-05-28T16:04:57.182Z,57.83
2019-05-28T16:07:30.424Z,59.48
2019-05-28T16:10:03.766Z,60.87
2019-05-28T16:12:37.094Z,61.52
2019-05-28T16:15:14.489Z,61.91
2019-05-28T16:17:48.000Z,62.79
2019-05-28T16:20:22.034Z,59.64
2019-05-28T16:22:55.312Z,53.82
2019-05-28T16:25:28.572Z,55.88
2019-05-28T16:28:01.849Z,57.83
2019-05-28T16:30:35.178Z,59.69
2019-05-28T16:33:08.775Z,61.15
2019-05-28T16:35:42.769Z,62.82
2019-05-28T16:38:16.037Z,59.77
2019-05-28T16:40:53.135Z,54.75
2019-05-28T16:43:26.482Z,56.78
2019-05-28T16:45:59.829Z,58.95
2019-05-28T16:48:33.551Z,59.62
2019-05-28T16:51:06.815Z,61.60
2019-05-28T16:53:40.130Z,62.10
2019-05-28T16:56:15.070Z,62.93
2019-05-28T16:58:48.416Z,59.26
2019-05-28T17:01:23.166Z,54.71
2019-05-28T17:03:57.647Z,56.78
2019-05-28T17:06:30.973Z,59.55
2019-05-28T17:09:04.690Z,60.72
2019-05-28T17:11:39.604Z,62.55
2019-05-28T17:14:14.069Z,59.48
2019-05-28T17:16:50.999Z,54.52
2019-05-28T17:19:25.211Z,56.22
2019-05-28T17:21:59.706Z,58.41
2019-05-28T17:24:33.900Z,59.66
2019-05-28T17:27:07.528Z,60.69
2019-05-28T17:29:41.045Z,61.86
2019-05-28T17:32:14.547Z,62.90
2019-05-28T17:34:49.194Z,60.52
2019-05-28T17:37:22.816Z,51.23
2019-05-28T17:39:56.248Z,50.48
2019-05-28T17:42:29.663Z,52.49
2019-05-28T17:45:03.224Z,55.31
2019-05-28T17:47:43.093Z,56.86
2019-05-28T17:50:11.927Z,58.52
2019-05-28T17:52:45.893Z,60.22
2019-05-28T17:55:19.639Z,61.63
2019-05-28T17:57:54.745Z,63.13
2019-05-28T18:00:28.211Z,60.33
2019-05-28T18:03:02.054Z,50.65
2019-05-28T18:05:35.374Z,49.74
2019-05-28T18:08:09.031Z,52.96
2019-05-28T18:10:42.421Z,54.88
2019-05-28T18:13:15.706Z,56.59
2019-05-28T18:15:49.326Z,58.47
2019-05-28T18:18:22.765Z,59.67
2019-05-28T18:20:56.391Z,61.21
2019-05-28T18:23:29.779Z,62.38
2019-05-28T18:26:03.447Z,60.23
2019-05-28T18:28:36.925Z,50.66
2019-05-28T18:31:10.395Z,50.07
2019-05-28T18:33:44.781Z,53.26
2019-05-28T18:36:18.063Z,55.79
2019-05-28T18:38:51.461Z,57.32
2019-05-28T18:41:24.809Z,59.22
2019-05-28T18:44:01.324Z,60.48
2019-05-28T18:46:33.072Z,61.80
2019-05-28T18:49:06.623Z,62.72
2019-05-28T18:51:39.906Z,59.79
2019-05-28T18:54:13.176Z,54.40
2019-05-28T18:56:46.766Z,56.53
2019-05-28T18:59:20.055Z,58.75
2019-05-28T19:01:54.081Z,60.46
2019-05-28T19:04:27.662Z,61.87
2019-05-28T19:07:01.003Z,63.06
2019-05-28T19:09:34.221Z,60.45
2019-05-28T19:12:07.602Z,52.13
2019-05-28T19:14:40.928Z,50.14
2019-05-28T19:17:14.257Z,52.86
2019-05-28T19:19:47.803Z,55.23
2019-05-28T19:22:22.698Z,57.31
2019-05-28T19:24:57.389Z,59.31
2019-05-28T19:27:30.804Z,60.18
2019-05-28T19:30:04.098Z,61.49
2019-05-28T19:32:37.595Z,62.77
2019-05-28T19:35:12.321Z,59.85
2019-05-28T19:37:46.261Z,54.34
2019-05-28T19:40:33.997Z,56.55
2019-05-28T19:43:07.860Z,59.11
2019-05-28T19:45:41.195Z,60.61
2019-05-28T19:48:16.326Z,61.85
2019-05-28T19:50:50.024Z,63.06
2019-05-28T19:53:26.817Z,60.71
2019-05-28T19:56:01.500Z,51.02
2019-05-28T19:58:35.241Z,49.41
2019-05-28T20:01:14.656Z,52.48
2019-05-28T20:03:48.308Z,55.38
2019-05-28T20:06:21.529Z,57.25
2019-05-28T20:08:54.940Z,59.09
2019-05-28T20:11:28.236Z,60.32
2019-05-28T20:14:05.454Z,61.58
2019-05-28T20:16:37.017Z,62.31
2019-05-28T20:19:10.410Z,60.52
2019-05-28T20:21:43.786Z,50.65
2019-05-28T20:24:17.051Z,50.19
2019-05-28T20:26:50.291Z,53.03
2019-05-28T20:29:23.531Z,55.50
2019-05-28T20:31:56.858Z,57.62
2019-05-28T20:34:31.039Z,59.13
2019-05-28T20:37:05.781Z,60.45
2019-05-28T20:39:39.475Z,61.65
2019-05-28T20:42:24.336Z,62.86
2019-05-28T20:44:48.037Z,60.36
2019-05-28T20:47:21.343Z,50.69
2019-05-28T20:49:54.640Z,50.78
2019-05-28T20:52:27.963Z,53.49
2019-05-28T20:55:01.322Z,55.93
2019-05-28T20:57:34.686Z,57.76
2019-05-28T21:00:09.160Z,59.23
2019-05-28T21:02:43.387Z,60.41
2019-05-28T21:05:17.081Z,61.68
2019-05-28T21:07:50.474Z,62.84
2019-05-28T21:10:23.865Z,60.67
2019-05-28T21:12:57.259Z,50.91
2019-05-28T21:15:30.655Z,48.87
2019-05-28T21:18:04.307Z,52.00
2019-05-28T21:20:37.749Z,54.13
2019-05-28T21:23:11.365Z,55.98
2019-05-28T21:25:45.184Z,57.63
2019-05-28T21:28:18.632Z,58.84
2019-05-28T21:30:52.449Z,60.15
2019-05-28T21:33:25.844Z,61.05
2019-05-28T21:35:59.515Z,61.88
2019-05-28T21:38:33.933Z,62.71
2019-05-28T21:41:07.132Z,60.64
2019-05-28T21:43:40.434Z,51.12
2019-05-28T21:46:14.213Z,48.77
2019-05-28T21:48:47.668Z,52.21
2019-05-28T21:51:21.185Z,54.46
2019-05-28T21:53:54.845Z,56.22
2019-05-28T21:56:28.778Z,58.02
2019-05-28T21:59:03.739Z,59.16
2019-05-28T22:01:39.561Z,60.49
2019-05-28T22:04:13.055Z,61.58
2019-05-28T22:06:46.536Z,62.67
2019-05-28T22:09:20.038Z,60.33
2019-05-28T22:11:53.507Z,50.74
2019-05-28T22:14:26.994Z,48.76
2019-05-28T22:17:02.617Z,51.73
2019-05-28T22:19:36.871Z,54.35
2019-05-28T22:22:10.419Z,56.24
2019-05-28T22:24:45.124Z,57.49
2019-05-28T22:27:18.609Z,58.88
2019-05-28T22:29:52.034Z,60.29
2019-05-28T22:32:25.475Z,61.49
2019-05-28T22:34:59.905Z,62.77
2019-05-28T22:37:33.802Z,59.91
2019-05-28T22:40:07.812Z,53.63
2019-05-28T22:42:41.705Z,55.56
2019-05-28T22:45:16.152Z,57.60
2019-05-28T22:47:49.665Z,59.35
2019-05-28T22:50:23.635Z,60.51
2019-05-28T22:52:57.797Z,61.64
2019-05-28T22:55:32.499Z,62.62
2019-05-28T22:58:06.719Z,60.39
2019-05-28T23:00:40.162Z,50.19
2019-05-28T23:03:13.664Z,49.22
2019-05-28T23:05:47.135Z,52.51
2019-05-28T23:08:20.419Z,55.06
2019-05-28T23:10:56.863Z,56.77
2019-05-28T23:13:29.725Z,58.38
2019-05-28T23:16:04.242Z,59.71
2019-05-28T23:18:37.730Z,61.00
2019-05-28T23:21:11.145Z,61.92
2019-05-28T23:23:44.537Z,63.10
2019-05-28T23:26:17.817Z,61.12
2019-05-28T23:28:51.103Z,50.93
2019-05-28T23:31:24.451Z,50.46
2019-05-28T23:33:57.826Z,53.48
2019-05-28T23:36:31.183Z,55.53
2019-05-28T23:39:06.973Z,57.07
2019-05-28T23:41:40.465Z,58.76
2019-05-28T23:44:14.250Z,59.60
2019-05-28T23:46:47.650Z,60.06
2019-05-28T23:49:21.003Z,60.26
2019-05-28T23:51:55.230Z,60.79
2019-05-28T23:54:28.574Z,61.05
2019-05-28T23:57:02.034Z,62.02
2019-05-28T23:59:35.364Z,62.74
